Time,TemperatureF,DewpointF,PressureIn,WindDirection,WindDirectionDegrees,WindSpeedMPH,WindSpeedGustMPH,Humidity,HourlyPrecipIn,Conditions,Clouds,dailyrainin,SoftwareType,DateUTC
2013-12-07 00:21:00,22.0,6.0,30.32,ENE,74,4.0,9.0,49,0.00,,,0.00,,2013-12-07 08:21:00,
2013-12-07 00:52:00,22.0,6.0,30.32,NNW,327,5.0,11.0,49,0.00,,,0.00,,2013-12-07 08:52:00,
2013-12-07 01:21:00,22.0,6.0,30.32,NNW,345,1.0,7.0,50,0.00,,,0.00,,2013-12-07 09:21:00,
2013-12-07 01:53:00,22.0,6.0,30.32,NE,50,3.0,6.0,49,0.00,,,0.00,,2013-12-07 09:53:00,
2013-12-07 02:23:00,22.0,5.0,30.33,NNW,344,3.0,10.0,48,0.00,,,0.00,,2013-12-07 10:23:00,
2013-12-07 02:53:00,22.0,5.0,30.33,NW,314,5.0,15.0,47,0.00,,,0.00,,2013-12-07 10:53:00,
2013-12-07 03:22:00,22.0,4.0,30.34,North,351,2.0,10.0,45,0.00,,,0.00,,2013-12-07 11:22:00,
2013-12-07 03:52:00,22.0,3.0,30.34,SE,128,3.0,8.0,44,0.00,,,0.00,,2013-12-07 11:52:00,
2013-12-07 04:22:00,22.0,2.0,30.34,ENE,78,6.0,8.0,42,0.00,,,0.00,,2013-12-07 12:22:00,
2013-12-07 04:52:00,22.0,3.0,30.34,East,86,2.0,5.0,43,0.00,,,0.00,,2013-12-07 12:52:00,
2013-12-07 05:22:00,22.0,3.0,30.34,ENE,69,3.0,5.0,43,0.00,,,0.00,,2013-12-07 13:22:00,
2013-12-07 05:52:00,22.0,3.0,30.33,NNW,332,4.0,7.0,44,0.00,,,0.00,,2013-12-07 13:52:00,
2013-12-07 06:21:00,23.0,4.0,30.33,SSE,168,2.0,8.0,43,0.00,,,0.00,,2013-12-07 14:21:00,
2013-12-07 06:52:00,22.0,4.0,30.34,East,101,2.0,9.0,45,0.00,,,0.00,,2013-12-07 14:52:00,
2013-12-07 07:21:00,22.0,3.0,30.35,ENE,69,2.0,8.0,44,0.00,,,0.00,,2013-12-07 15:21:00,
2013-12-07 07:54:00,22.0,4.0,30.35,West,271,1.0,5.0,45,0.00,,,0.00,,2013-12-07 15:54:00,
2013-12-07 08:23:00,22.0,4.0,30.35,East,82,2.0,7.0,45,0.00,,,0.00,,2013-12-07 16:23:00,
2013-12-07 08:53:00,23.0,5.0,30.34,North,355,4.0,14.0,46,0.00,,,0.00,,2013-12-07 16:53:00,
2013-12-07 09:22:00,23.0,6.0,30.36,NNE,28,2.0,10.0,47,0.00,,,0.00,,2013-12-07 17:22:00,
2013-12-07 09:52:00,24.0,5.0,30.38,WNW,289,3.0,11.0,44,0.00,,,0.00,,2013-12-07 17:52:00,
2013-12-07 10:22:00,25.0,7.0,30.39,ESE,107,1.0,15.0,45,0.00,,,0.00,,2013-12-07 18:22:00,
2013-12-07 10:52:00,26.0,7.0,30.39,North,9,1.0,7.0,44,0.00,,,0.00,,2013-12-07 18:52:00,
2013-12-07 11:21:00,27.0,7.0,30.38,East,86,2.0,7.0,42,0.00,,,0.00,,2013-12-07 19:21:00,
2013-12-07 11:52:00,27.0,6.0,30.37,NE,54,0.0,4.0,41,0.00,,,0.00,,2013-12-07 19:52:00,
2013-12-07 12:22:00,28.0,7.0,30.37,SE,128,1.0,6.0,41,0.00,,,0.00,,2013-12-07 20:22:00,
2013-12-07 12:53:00,29.0,10.0,30.37,NNE,26,0.0,4.0,45,0.00,,,0.00,,2013-12-07 20:53:00,
2013-12-07 13:21:00,29.0,11.0,30.36,SSW,199,0.0,3.0,47,0.00,,,0.00,,2013-12-07 21:21:00,
2013-12-07 13:53:00,29.0,12.0,30.36,WNW,303,1.0,6.0,49,0.00,,,0.00,,2013-12-07 21:53:00,
2013-12-07 14:23:00,29.0,12.0,30.36,North,355,1.0,3.0,49,0.00,,,0.00,,2013-12-07 22:23:00,
2013-12-07 14:53:00,30.0,13.0,30.37,NW,325,3.0,5.0,48,0.00,,,0.00,,2013-12-07 22:53:00,
2013-12-07 15:21:00,28.0,12.0,30.37,North,355,1.0,5.0,51,0.00,,,0.00,,2013-12-07 23:21:00,
2013-12-07 15:52:00,26.0,14.0,30.38,North,355,0.0,0.0,59,0.00,,,0.00,,2013-12-07 23:52:00,
2013-12-07 16:22:00,25.0,15.0,30.38,North,355,0.0,2.0,64,0.00,,,0.00,,2013-12-08 00:22:00,
2013-12-07 16:52:00,23.0,14.0,30.38,North,355,0.0,0.0,69,0.00,,,0.00,,2013-12-08 00:52:00,
2013-12-07 17:22:00,22.0,14.0,30.39,North,355,0.0,0.0,71,0.00,,,0.00,,2013-12-08 01:22:00,
2013-12-07 17:52:00,21.0,14.0,30.39,North,355,0.0,0.0,73,0.00,,,0.00,,2013-12-08 01:52:00,
2013-12-07 18:21:00,21.0,13.0,30.39,West,276,1.0,4.0,72,0.00,,,0.00,,2013-12-08 02:21:00,
2013-12-07 18:52:00,20.0,13.0,30.40,West,276,0.0,0.0,74,0.00,,,0.00,,2013-12-08 02:52:00,
2013-12-07 19:54:00,18.0,13.0,30.40,West,276,0.0,0.0,80,0.00,,,0.00,,2013-12-08 03:54:00,
2013-12-07 20:02:00,-999.0,-99.9,30.40,West,276,0.0,0.0,-999,0.00,,,0.00,,2013-12-08 04:02:00,
2013-12-07 20:22:00,18.0,13.0,30.39,West,276,0.0,0.0,82,0.00,,,0.00,,2013-12-08 04:22:00,
2013-12-07 20:53:00,18.0,13.0,30.40,NNW,328,2.0,4.0,81,0.00,,,0.00,,2013-12-08 04:53:00,
2013-12-07 21:22:00,19.0,14.0,30.40,NNW,332,0.0,0.0,79,0.00,,,0.00,,2013-12-08 05:22:00,
2013-12-07 21:53:00,18.0,13.0,30.39,NNW,332,0.0,2.0,81,0.00,,,0.00,,2013-12-08 05:53:00,
2013-12-07 22:22:00,18.0,13.0,30.40,NNW,332,0.0,0.0,81,0.00,,,0.00,,2013-12-08 06:22:00,
2013-12-07 22:52:00,18.0,13.0,30.39,NNW,332,0.0,0.0,80,0.00,,,0.00,,2013-12-08 06:52:00,
2013-12-07 23:21:00,18.0,13.0,30.40,NW,315,0.0,3.0,81,0.00,,,0.00,,2013-12-08 07:21:00,
2013-12-07 23:53:00,18.0,13.0,30.40,NW,315,0.0,2.0,82,0.00,,,0.00,,2013-12-08 07:53:00,